sensor_id;sensor_type;location;lat;lon;timestamp;temperature;humidity
12520;DHT22;6325;49.540;8.364;2023-08-07T00:00:27;15.30;99.90
12520;DHT22;6325;49.540;8.364;2023-08-07T00:02:54;14.70;99.90
12520;DHT22;6325;49.540;8.364;2023-08-07T00:05:21;14.40;99.90
12520;DHT22;6325;49.540;8.364;2023-08-07T00:07:48;14.90;99.90
12520;DHT22;6325;49.540;8.364;2023-08-07T00:10:16;14.90;99.90
12520;DHT22;6325;49.540;8.364;2023-08-07T00:12:43;14.70;99.90
12520;DHT22;6325;49.540;8.364;2023-08-07T00:15:10;14.80;99.90
12520;DHT22;6325;49.540;8.364;2023-08-07T00:17:37;15.00;99.90
12520;DHT22;6325;49.540;8.364;2023-08-07T00:20:04;14.90;99.90
12520;DHT22;6325;49.540;8.364;2023-08-07T00:22:31;14.50;99.90
12520;DHT22;6325;49.540;8.364;2023-08-07T00:24:58;14.90;99.90
12520;DHT22;6325;49.540;8.364;2023-08-07T00:27:26;14.90;99.90
12520;DHT22;6325;49.540;8.364;2023-08-07T00:29:53;14.90;99.90
12520;DHT22;6325;49.540;8.364;2023-08-07T00:32:20;14.90;99.90
12520;DHT22;6325;49.540;8.364;2023-08-07T00:34:46;14.90;99.90
12520;DHT22;6325;49.540;8.364;2023-08-07T00:37:13;14.90;99.90
12520;DHT22;6325;49.540;8.364;2023-08-07T00:39:40;14.90;99.90
12520;DHT22;6325;49.540;8.364;2023-08-07T00:42:07;14.80;99.90
12520;DHT22;6325;49.540;8.364;2023-08-07T00:44:35;14.80;99.90
12520;DHT22;6325;49.540;8.364;2023-08-07T00:47:02;14.70;99.90
12520;DHT22;6325;49.540;8.364;2023-08-07T00:49:29;14.50;99.90
12520;DHT22;6325;49.540;8.364;2023-08-07T00:51:56;14.70;99.90
12520;DHT22;6325;49.540;8.364;2023-08-07T00:54:23;14.70;99.90
12520;DHT22;6325;49.540;8.364;2023-08-07T00:56:51;14.70;99.90
12520;DHT22;6325;49.540;8.364;2023-08-07T00:59:18;14.80;99.90
12520;DHT22;6325;49.540;8.364;2023-08-07T01:01:46;14.90;99.90
12520;DHT22;6325;49.540;8.364;2023-08-07T01:04:13;14.70;99.90
12520;DHT22;6325;49.540;8.364;2023-08-07T01:06:40;14.80;99.90
12520;DHT22;6325;49.540;8.364;2023-08-07T01:09:07;15.00;99.90
12520;DHT22;6325;49.540;8.364;2023-08-07T01:11:39;14.70;99.90
12520;DHT22;6325;49.540;8.364;2023-08-07T01:14:22;14.70;99.90
12520;DHT22;6325;49.540;8.364;2023-08-07T01:16:55;14.90;99.90
12520;DHT22;6325;49.540;8.364;2023-08-07T01:19:26;14.90;99.90
12520;DHT22;6325;49.540;8.364;2023-08-07T01:22:06;14.70;99.90
12520;DHT22;6325;49.540;8.364;2023-08-07T01:24:33;14.70;99.90
12520;DHT22;6325;49.540;8.364;2023-08-07T01:27:06;14.90;99.90
12520;DHT22;6325;49.540;8.364;2023-08-07T01:29:40;14.60;99.90
12520;DHT22;6325;49.540;8.364;2023-08-07T01:32:10;14.70;99.90
12520;DHT22;6325;49.540;8.364;2023-08-07T01:34:40;14.70;99.90
12520;DHT22;6325;49.540;8.364;2023-08-07T01:37:10;14.60;99.90
12520;DHT22;6325;49.540;8.364;2023-08-07T01:39:38;14.30;99.90
12520;DHT22;6325;49.540;8.364;2023-08-07T01:42:06;14.40;99.90
12520;DHT22;6325;49.540;8.364;2023-08-07T01:44:33;14.60;99.90
12520;DHT22;6325;49.540;8.364;2023-08-07T01:47:00;14.60;99.90
12520;DHT22;6325;49.540;8.364;2023-08-07T01:49:27;14.50;99.90
12520;DHT22;6325;49.540;8.364;2023-08-07T01:51:53;14.90;99.90
12520;DHT22;6325;49.540;8.364;2023-08-07T01:54:21;14.60;99.90
12520;DHT22;6325;49.540;8.364;2023-08-07T01:56:48;14.50;99.90
12520;DHT22;6325;49.540;8.364;2023-08-07T01:59:15;14.90;99.90
12520;DHT22;6325;49.540;8.364;2023-08-07T02:01:42;14.50;99.90
12520;DHT22;6325;49.540;8.364;2023-08-07T02:04:08;14.60;99.90
12520;DHT22;6325;49.540;8.364;2023-08-07T02:06:35;14.50;99.90
12520;DHT22;6325;49.540;8.364;2023-08-07T02:09:02;14.60;99.90
12520;DHT22;6325;49.540;8.364;2023-08-07T02:11:30;14.70;99.90
12520;DHT22;6325;49.540;8.364;2023-08-07T02:13:57;14.60;99.90
12520;DHT22;6325;49.540;8.364;2023-08-07T02:16:23;14.60;99.90
12520;DHT22;6325;49.540;8.364;2023-08-07T02:18:50;14.80;99.90
12520;DHT22;6325;49.540;8.364;2023-08-07T02:21:17;14.60;99.90
12520;DHT22;6325;49.540;8.364;2023-08-07T02:23:43;14.50;99.90
12520;DHT22;6325;49.540;8.364;2023-08-07T02:26:10;14.50;99.90
12520;DHT22;6325;49.540;8.364;2023-08-07T02:28:38;14.50;99.90
12520;DHT22;6325;49.540;8.364;2023-08-07T02:31:05;14.60;99.90
12520;DHT22;6325;49.540;8.364;2023-08-07T02:33:32;14.50;99.90
12520;DHT22;6325;49.540;8.364;2023-08-07T02:35:58;14.50;99.90
12520;DHT22;6325;49.540;8.364;2023-08-07T02:38:25;14.50;99.90
12520;DHT22;6325;49.540;8.364;2023-08-07T02:40:52;14.50;99.90
12520;DHT22;6325;49.540;8.364;2023-08-07T02:43:19;14.50;99.90
12520;DHT22;6325;49.540;8.364;2023-08-07T02:45:47;14.50;99.90
12520;DHT22;6325;49.540;8.364;2023-08-07T02:48:13;14.40;99.90
12520;DHT22;6325;49.540;8.364;2023-08-07T02:50:40;14.50;99.90
12520;DHT22;6325;49.540;8.364;2023-08-07T02:53:07;14.80;99.90
12520;DHT22;6325;49.540;8.364;2023-08-07T02:55:34;13.90;99.90
12520;DHT22;6325;49.540;8.364;2023-08-07T02:58:00;14.40;99.90
12520;DHT22;6325;49.540;8.364;2023-08-07T03:00:27;14.00;99.90
12520;DHT22;6325;49.540;8.364;2023-08-07T03:02:55;14.20;99.90
12520;DHT22;6325;49.540;8.364;2023-08-07T03:05:22;14.10;99.90
12520;DHT22;6325;49.540;8.364;2023-08-07T03:07:49;13.90;99.90
12520;DHT22;6325;49.540;8.364;2023-08-07T03:10:15;14.40;99.90
12520;DHT22;6325;49.540;8.364;2023-08-07T03:12:42;14.00;99.90
12520;DHT22;6325;49.540;8.364;2023-08-07T03:15:10;14.50;99.90
12520;DHT22;6325;49.540;8.364;2023-08-07T03:17:37;14.40;99.90
12520;DHT22;6325;49.540;8.364;2023-08-07T03:20:05;14.40;99.90
12520;DHT22;6325;49.540;8.364;2023-08-07T03:22:32;14.50;99.90
12520;DHT22;6325;49.540;8.364;2023-08-07T03:24:59;14.70;99.90
12520;DHT22;6325;49.540;8.364;2023-08-07T03:27:26;14.90;99.90
12520;DHT22;6325;49.540;8.364;2023-08-07T03:29:53;14.10;99.90
12520;DHT22;6325;49.540;8.364;2023-08-07T03:32:19;14.20;99.90
12520;DHT22;6325;49.540;8.364;2023-08-07T03:34:46;14.70;99.90
12520;DHT22;6325;49.540;8.364;2023-08-07T03:37:14;14.80;99.90
12520;DHT22;6325;49.540;8.364;2023-08-07T03:39:41;14.30;99.90
12520;DHT22;6325;49.540;8.364;2023-08-07T03:42:09;13.80;99.90
12520;DHT22;6325;49.540;8.364;2023-08-07T03:44:35;14.20;99.90
12520;DHT22;6325;49.540;8.364;2023-08-07T03:47:02;13.60;99.90
12520;DHT22;6325;49.540;8.364;2023-08-07T03:49:29;14.20;99.90
12520;DHT22;6325;49.540;8.364;2023-08-07T03:51:56;14.20;99.90
12520;DHT22;6325;49.540;8.364;2023-08-07T03:54:25;14.20;99.90
12520;DHT22;6325;49.540;8.364;2023-08-07T03:56:52;14.20;99.90
12520;DHT22;6325;49.540;8.364;2023-08-07T03:59:19;13.80;99.90
12520;DHT22;6325;49.540;8.364;2023-08-07T04:01:46;14.60;99.90
12520;DHT22;6325;49.540;8.364;2023-08-07T04:04:12;14.50;99.90
12520;DHT22;6325;49.540;8.364;2023-08-07T04:06:39;13.70;99.90
12520;DHT22;6325;49.540;8.364;2023-08-07T04:09:06;14.40;99.90
12520;DHT22;6325;49.540;8.364;2023-08-07T04:11:34;14.20;99.90
12520;DHT22;6325;49.540;8.364;2023-08-07T04:14:01;13.80;99.90
12520;DHT22;6325;49.540;8.364;2023-08-07T04:16:30;14.40;99.90
12520;DHT22;6325;49.540;8.364;2023-08-07T04:18:57;13.80;99.90
12520;DHT22;6325;49.540;8.364;2023-08-07T04:21:24;14.00;99.90
12520;DHT22;6325;49.540;8.364;2023-08-07T04:23:51;14.80;99.90
12520;DHT22;6325;49.540;8.364;2023-08-07T04:26:17;14.50;99.90
12520;DHT22;6325;49.540;8.364;2023-08-07T04:28:45;14.60;99.90
12520;DHT22;6325;49.540;8.364;2023-08-07T04:31:12;14.10;99.90
12520;DHT22;6325;49.540;8.364;2023-08-07T04:33:39;14.70;99.90
12520;DHT22;6325;49.540;8.364;2023-08-07T04:36:06;14.40;99.90
12520;DHT22;6325;49.540;8.364;2023-08-07T04:38:32;14.20;99.90
12520;DHT22;6325;49.540;8.364;2023-08-07T04:40:59;14.40;99.90
12520;DHT22;6325;49.540;8.364;2023-08-07T04:43:26;14.50;99.90
12520;DHT22;6325;49.540;8.364;2023-08-07T04:45:54;14.80;99.90
12520;DHT22;6325;49.540;8.364;2023-08-07T04:48:21;14.30;99.90
12520;DHT22;6325;49.540;8.364;2023-08-07T04:50:50;14.60;99.90
12520;DHT22;6325;49.540;8.364;2023-08-07T04:53:17;14.70;99.90
12520;DHT22;6325;49.540;8.364;2023-08-07T04:55:44;14.40;99.90
12520;DHT22;6325;49.540;8.364;2023-08-07T04:58:11;14.40;99.90
12520;DHT22;6325;49.540;8.364;2023-08-07T05:00:38;14.60;99.90
12520;DHT22;6325;49.540;8.364;2023-08-07T05:03:06;14.40;99.90
12520;DHT22;6325;49.540;8.364;2023-08-07T05:05:32;13.80;99.90
12520;DHT22;6325;49.540;8.364;2023-08-07T05:07:59;14.70;99.90
12520;DHT22;6325;49.540;8.364;2023-08-07T05:10:26;14.60;99.90
12520;DHT22;6325;49.540;8.364;2023-08-07T05:12:53;14.40;99.90
12520;DHT22;6325;49.540;8.364;2023-08-07T05:15:21;14.60;99.90
12520;DHT22;6325;49.540;8.364;2023-08-07T05:17:48;14.50;99.90
12520;DHT22;6325;49.540;8.364;2023-08-07T05:20:16;14.40;99.90
12520;DHT22;6325;49.540;8.364;2023-08-07T05:22:43;14.40;99.90
12520;DHT22;6325;49.540;8.364;2023-08-07T05:25:10;14.40;99.90
12520;DHT22;6325;49.540;8.364;2023-08-07T05:27:41;13.90;99.90
12520;DHT22;6325;49.540;8.364;2023-08-07T05:30:08;14.50;99.90
12520;DHT22;6325;49.540;8.364;2023-08-07T05:32:35;14.20;99.90
12520;DHT22;6325;49.540;8.364;2023-08-07T05:35:03;14.80;99.90
12520;DHT22;6325;49.540;8.364;2023-08-07T05:37:31;14.50;99.90
12520;DHT22;6325;49.540;8.364;2023-08-07T05:39:58;14.50;99.90
12520;DHT22;6325;49.540;8.364;2023-08-07T05:42:25;15.00;99.90
12520;DHT22;6325;49.540;8.364;2023-08-07T05:44:52;14.40;99.90
12520;DHT22;6325;49.540;8.364;2023-08-07T05:47:18;14.60;99.90
12520;DHT22;6325;49.540;8.364;2023-08-07T05:49:45;14.60;99.90
12520;DHT22;6325;49.540;8.364;2023-08-07T05:52:12;14.60;99.90
12520;DHT22;6325;49.540;8.364;2023-08-07T05:54:40;14.60;99.90
12520;DHT22;6325;49.540;8.364;2023-08-07T05:57:07;14.90;99.90
12520;DHT22;6325;49.540;8.364;2023-08-07T05:59:33;14.70;99.90
12520;DHT22;6325;49.540;8.364;2023-08-07T06:02:02;15.30;99.90
12520;DHT22;6325;49.540;8.364;2023-08-07T06:04:29;15.20;99.90
12520;DHT22;6325;49.540;8.364;2023-08-07T06:06:55;15.00;99.90
12520;DHT22;6325;49.540;8.364;2023-08-07T06:09:22;14.70;99.90
12520;DHT22;6325;49.540;8.364;2023-08-07T06:11:50;14.80;99.90
12520;DHT22;6325;49.540;8.364;2023-08-07T06:14:17;14.80;99.90
12520;DHT22;6325;49.540;8.364;2023-08-07T06:16:44;14.80;99.90
12520;DHT22;6325;49.540;8.364;2023-08-07T06:19:11;14.90;99.90
12520;DHT22;6325;49.540;8.364;2023-08-07T06:21:37;14.90;99.90
12520;DHT22;6325;49.540;8.364;2023-08-07T06:24:04;15.00;99.90
12520;DHT22;6325;49.540;8.364;2023-08-07T06:26:31;14.90;99.90
12520;DHT22;6325;49.540;8.364;2023-08-07T06:28:59;14.30;99.90
12520;DHT22;6325;49.540;8.364;2023-08-07T06:31:26;15.00;99.90
12520;DHT22;6325;49.540;8.364;2023-08-07T06:33:53;14.90;99.90
12520;DHT22;6325;49.540;8.364;2023-08-07T06:36:20;14.90;99.90
12520;DHT22;6325;49.540;8.364;2023-08-07T06:38:47;14.90;99.90
12520;DHT22;6325;49.540;8.364;2023-08-07T06:41:13;14.80;99.90
12520;DHT22;6325;49.540;8.364;2023-08-07T06:43:40;14.80;99.90
12520;DHT22;6325;49.540;8.364;2023-08-07T06:46:08;14.80;99.90
12520;DHT22;6325;49.540;8.364;2023-08-07T06:48:36;14.80;99.90
12520;DHT22;6325;49.540;8.364;2023-08-07T06:51:03;14.90;99.90
12520;DHT22;6325;49.540;8.364;2023-08-07T06:53:30;14.80;99.90
12520;DHT22;6325;49.540;8.364;2023-08-07T06:55:57;14.60;99.90
12520;DHT22;6325;49.540;8.364;2023-08-07T06:58:23;15.50;99.90
12520;DHT22;6325;49.540;8.364;2023-08-07T07:00:50;14.90;99.90
12520;DHT22;6325;49.540;8.364;2023-08-07T07:03:18;14.80;99.90
12520;DHT22;6325;49.540;8.364;2023-08-07T07:05:45;15.40;99.90
12520;DHT22;6325;49.540;8.364;2023-08-07T07:08:12;15.00;99.90
12520;DHT22;6325;49.540;8.364;2023-08-07T07:10:39;14.90;99.90
12520;DHT22;6325;49.540;8.364;2023-08-07T07:13:05;14.90;99.90
12520;DHT22;6325;49.540;8.364;2023-08-07T07:15:33;14.90;99.90
12520;DHT22;6325;49.540;8.364;2023-08-07T07:18:00;14.90;99.90
12520;DHT22;6325;49.540;8.364;2023-08-07T07:20:29;14.90;99.90
12520;DHT22;6325;49.540;8.364;2023-08-07T07:22:55;14.50;99.90
12520;DHT22;6325;49.540;8.364;2023-08-07T07:25:22;14.90;99.90
12520;DHT22;6325;49.540;8.364;2023-08-07T07:27:49;15.00;99.90
12520;DHT22;6325;49.540;8.364;2023-08-07T07:30:16;15.00;99.90
12520;DHT22;6325;49.540;8.364;2023-08-07T07:32:42;14.50;99.90
12520;DHT22;6325;49.540;8.364;2023-08-07T07:35:09;15.00;99.90
12520;DHT22;6325;49.540;8.364;2023-08-07T07:37:37;15.40;99.90
12520;DHT22;6325;49.540;8.364;2023-08-07T07:40:05;15.00;99.90
12520;DHT22;6325;49.540;8.364;2023-08-07T07:42:32;15.10;99.90
12520;DHT22;6325;49.540;8.364;2023-08-07T07:45:00;15.10;99.90
12520;DHT22;6325;49.540;8.364;2023-08-07T07:47:27;15.20;99.90
12520;DHT22;6325;49.540;8.364;2023-08-07T07:50:06;15.30;99.90
12520;DHT22;6325;49.540;8.364;2023-08-07T07:52:34;15.80;99.90
12520;DHT22;6325;49.540;8.364;2023-08-07T07:55:02;15.40;99.90
12520;DHT22;6325;49.540;8.364;2023-08-07T07:57:29;15.20;99.90
12520;DHT22;6325;49.540;8.364;2023-08-07T07:59:56;15.60;99.90
12520;DHT22;6325;49.540;8.364;2023-08-07T08:02:23;15.30;99.90
12520;DHT22;6325;49.540;8.364;2023-08-07T08:04:50;15.90;99.90
12520;DHT22;6325;49.540;8.364;2023-08-07T08:07:17;15.60;99.90
12520;DHT22;6325;49.540;8.364;2023-08-07T08:09:44;15.80;99.90
12520;DHT22;6325;49.540;8.364;2023-08-07T08:12:12;14.90;99.90
12520;DHT22;6325;49.540;8.364;2023-08-07T08:14:39;15.40;99.90
12520;DHT22;6325;49.540;8.364;2023-08-07T08:17:06;16.00;99.90
12520;DHT22;6325;49.540;8.364;2023-08-07T08:19:33;15.00;99.90
12520;DHT22;6325;49.540;8.364;2023-08-07T08:22:00;15.60;99.90
12520;DHT22;6325;49.540;8.364;2023-08-07T08:24:27;15.60;99.90
12520;DHT22;6325;49.540;8.364;2023-08-07T08:26:53;15.20;99.90
12520;DHT22;6325;49.540;8.364;2023-08-07T08:29:22;15.70;99.90
12520;DHT22;6325;49.540;8.364;2023-08-07T08:31:48;15.60;99.90
12520;DHT22;6325;49.540;8.364;2023-08-07T08:34:18;16.10;99.90
12520;DHT22;6325;49.540;8.364;2023-08-07T08:36:45;16.00;99.90
12520;DHT22;6325;49.540;8.364;2023-08-07T08:39:11;16.00;99.90
12520;DHT22;6325;49.540;8.364;2023-08-07T08:41:39;15.30;99.90
12520;DHT22;6325;49.540;8.364;2023-08-07T08:44:07;15.80;99.90
12520;DHT22;6325;49.540;8.364;2023-08-07T08:46:36;16.10;99.90
12520;DHT22;6325;49.540;8.364;2023-08-07T08:49:05;15.70;99.90
12520;DHT22;6325;49.540;8.364;2023-08-07T08:51:33;15.40;99.90
12520;DHT22;6325;49.540;8.364;2023-08-07T08:54:01;15.70;99.90
12520;DHT22;6325;49.540;8.364;2023-08-07T08:56:29;15.90;99.90
12520;DHT22;6325;49.540;8.364;2023-08-07T08:58:56;15.60;99.90
12520;DHT22;6325;49.540;8.364;2023-08-07T09:01:23;15.90;99.90
12520;DHT22;6325;49.540;8.364;2023-08-07T09:03:53;16.20;99.90
12520;DHT22;6325;49.540;8.364;2023-08-07T09:06:20;15.60;99.90
12520;DHT22;6325;49.540;8.364;2023-08-07T09:08:47;16.00;99.90
12520;DHT22;6325;49.540;8.364;2023-08-07T09:11:15;16.00;99.90
12520;DHT22;6325;49.540;8.364;2023-08-07T09:13:44;16.00;99.90
12520;DHT22;6325;49.540;8.364;2023-08-07T09:16:11;15.80;99.90
12520;DHT22;6325;49.540;8.364;2023-08-07T09:18:38;16.40;99.90
12520;DHT22;6325;49.540;8.364;2023-08-07T09:21:07;15.90;99.90
12520;DHT22;6325;49.540;8.364;2023-08-07T09:23:34;15.30;99.90
12520;DHT22;6325;49.540;8.364;2023-08-07T09:26:01;16.40;99.90
12520;DHT22;6325;49.540;8.364;2023-08-07T09:28:28;15.90;99.90
12520;DHT22;6325;49.540;8.364;2023-08-07T09:30:56;16.20;99.90
12520;DHT22;6325;49.540;8.364;2023-08-07T09:33:26;15.70;99.90
12520;DHT22;6325;49.540;8.364;2023-08-07T09:35:53;15.80;99.90
12520;DHT22;6325;49.540;8.364;2023-08-07T09:38:28;15.70;99.90
12520;DHT22;6325;49.540;8.364;2023-08-07T09:40:57;15.90;99.90
12520;DHT22;6325;49.540;8.364;2023-08-07T09:43:24;16.10;99.90
12520;DHT22;6325;49.540;8.364;2023-08-07T09:45:51;15.80;99.90
12520;DHT22;6325;49.540;8.364;2023-08-07T09:48:22;15.90;99.90
12520;DHT22;6325;49.540;8.364;2023-08-07T09:50:49;15.50;99.90
12520;DHT22;6325;49.540;8.364;2023-08-07T09:53:16;16.60;99.90
12520;DHT22;6325;49.540;8.364;2023-08-07T09:55:45;16.00;99.90
12520;DHT22;6325;49.540;8.364;2023-08-07T09:58:12;16.00;99.90
12520;DHT22;6325;49.540;8.364;2023-08-07T10:00:40;16.10;99.90
12520;DHT22;6325;49.540;8.364;2023-08-07T10:03:07;16.30;99.90
12520;DHT22;6325;49.540;8.364;2023-08-07T10:05:34;16.20;99.90
12520;DHT22;6325;49.540;8.364;2023-08-07T10:08:01;16.10;99.90
12520;DHT22;6325;49.540;8.364;2023-08-07T10:10:28;16.10;99.90
12520;DHT22;6325;49.540;8.364;2023-08-07T10:13:00;16.10;99.90
12520;DHT22;6325;49.540;8.364;2023-08-07T10:15:28;15.80;99.90
12520;DHT22;6325;49.540;8.364;2023-08-07T10:17:56;16.10;99.90
12520;DHT22;6325;49.540;8.364;2023-08-07T10:20:23;16.30;99.90
12520;DHT22;6325;49.540;8.364;2023-08-07T10:22:52;16.20;99.90
12520;DHT22;6325;49.540;8.364;2023-08-07T10:25:21;15.80;99.90
12520;DHT22;6325;49.540;8.364;2023-08-07T10:27:50;16.50;99.90
12520;DHT22;6325;49.540;8.364;2023-08-07T10:30:22;16.40;99.90
12520;DHT22;6325;49.540;8.364;2023-08-07T10:32:50;16.50;99.90
12520;DHT22;6325;49.540;8.364;2023-08-07T10:35:24;16.50;99.90
12520;DHT22;6325;49.540;8.364;2023-08-07T10:37:52;16.60;99.90
12520;DHT22;6325;49.540;8.364;2023-08-07T10:40:19;16.60;99.90
12520;DHT22;6325;49.540;8.364;2023-08-07T10:43:12;16.60;99.90
12520;DHT22;6325;49.540;8.364;2023-08-07T10:45:41;16.40;99.90
12520;DHT22;6325;49.540;8.364;2023-08-07T10:48:10;17.00;99.90
12520;DHT22;6325;49.540;8.364;2023-08-07T10:50:50;16.80;99.90
12520;DHT22;6325;49.540;8.364;2023-08-07T10:53:21;16.20;99.90
12520;DHT22;6325;49.540;8.364;2023-08-07T10:55:54;16.30;99.90
12520;DHT22;6325;49.540;8.364;2023-08-07T10:58:24;16.10;99.90
12520;DHT22;6325;49.540;8.364;2023-08-07T11:03:35;16.40;99.90
12520;DHT22;6325;49.540;8.364;2023-08-07T11:06:02;15.80;99.90
12520;DHT22;6325;49.540;8.364;2023-08-07T11:08:29;16.00;99.90
12520;DHT22;6325;49.540;8.364;2023-08-07T11:11:03;16.30;99.90
12520;DHT22;6325;49.540;8.364;2023-08-07T11:13:30;16.60;99.90
12520;DHT22;6325;49.540;8.364;2023-08-07T11:15:59;16.70;99.90
12520;DHT22;6325;49.540;8.364;2023-08-07T11:18:26;16.70;99.90
12520;DHT22;6325;49.540;8.364;2023-08-07T11:20:55;16.70;99.90
12520;DHT22;6325;49.540;8.364;2023-08-07T11:23:23;16.90;99.90
12520;DHT22;6325;49.540;8.364;2023-08-07T11:25:51;16.90;99.90
12520;DHT22;6325;49.540;8.364;2023-08-07T11:28:18;17.40;99.90
12520;DHT22;6325;49.540;8.364;2023-08-07T11:30:46;17.10;99.90
12520;DHT22;6325;49.540;8.364;2023-08-07T11:33:15;17.60;99.90
12520;DHT22;6325;49.540;8.364;2023-08-07T11:35:42;17.00;99.90
12520;DHT22;6325;49.540;8.364;2023-08-07T11:38:09;17.10;99.90
12520;DHT22;6325;49.540;8.364;2023-08-07T11:40:36;17.10;99.90
12520;DHT22;6325;49.540;8.364;2023-08-07T11:43:03;17.20;99.90
12520;DHT22;6325;49.540;8.364;2023-08-07T11:45:30;17.10;99.90
12520;DHT22;6325;49.540;8.364;2023-08-07T11:47:57;17.20;99.90
12520;DHT22;6325;49.540;8.364;2023-08-07T11:50:27;17.50;99.90
12520;DHT22;6325;49.540;8.364;2023-08-07T11:52:55;17.60;99.90
12520;DHT22;6325;49.540;8.364;2023-08-07T11:55:28;17.20;99.90
12520;DHT22;6325;49.540;8.364;2023-08-07T11:57:55;17.00;99.90
12520;DHT22;6325;49.540;8.364;2023-08-07T12:00:25;17.20;99.90
12520;DHT22;6325;49.540;8.364;2023-08-07T12:02:53;17.20;99.90
12520;DHT22;6325;49.540;8.364;2023-08-07T12:05:20;17.60;99.90
12520;DHT22;6325;49.540;8.364;2023-08-07T12:07:48;17.40;99.90
12520;DHT22;6325;49.540;8.364;2023-08-07T12:10:15;17.00;99.90
12520;DHT22;6325;49.540;8.364;2023-08-07T12:12:43;17.30;99.90
12520;DHT22;6325;49.540;8.364;2023-08-07T12:15:10;18.00;99.90
12520;DHT22;6325;49.540;8.364;2023-08-07T12:17:37;17.60;99.90
12520;DHT22;6325;49.540;8.364;2023-08-07T12:20:05;18.30;99.90
12520;DHT22;6325;49.540;8.364;2023-08-07T12:22:33;17.90;99.90
12520;DHT22;6325;49.540;8.364;2023-08-07T12:25:04;18.10;99.90
12520;DHT22;6325;49.540;8.364;2023-08-07T12:27:31;18.20;99.90
12520;DHT22;6325;49.540;8.364;2023-08-07T12:29:58;18.30;99.90
12520;DHT22;6325;49.540;8.364;2023-08-07T12:32:27;18.40;99.90
12520;DHT22;6325;49.540;8.364;2023-08-07T12:34:53;18.60;99.90
12520;DHT22;6325;49.540;8.364;2023-08-07T12:37:20;18.40;99.90
12520;DHT22;6325;49.540;8.364;2023-08-07T12:39:48;18.30;99.90
12520;DHT22;6325;49.540;8.364;2023-08-07T12:42:17;18.30;99.90
12520;DHT22;6325;49.540;8.364;2023-08-07T12:44:43;18.30;99.90
12520;DHT22;6325;49.540;8.364;2023-08-07T12:47:10;18.40;99.90
12520;DHT22;6325;49.540;8.364;2023-08-07T12:49:37;18.60;99.90
12520;DHT22;6325;49.540;8.364;2023-08-07T12:52:05;18.30;99.90
12520;DHT22;6325;49.540;8.364;2023-08-07T12:54:31;18.30;99.90
12520;DHT22;6325;49.540;8.364;2023-08-07T12:56:58;18.40;99.90
12520;DHT22;6325;49.540;8.364;2023-08-07T12:59:27;18.10;99.90
12520;DHT22;6325;49.540;8.364;2023-08-07T13:01:53;18.30;99.90
12520;DHT22;6325;49.540;8.364;2023-08-07T13:04:20;18.20;99.90
12520;DHT22;6325;49.540;8.364;2023-08-07T13:06:47;18.70;99.90
12520;DHT22;6325;49.540;8.364;2023-08-07T13:09:15;18.80;99.90
12520;DHT22;6325;49.540;8.364;2023-08-07T13:11:41;19.10;99.90
12520;DHT22;6325;49.540;8.364;2023-08-07T13:14:08;19.20;99.90
12520;DHT22;6325;49.540;8.364;2023-08-07T13:16:36;19.30;99.90
12520;DHT22;6325;49.540;8.364;2023-08-07T13:19:03;20.00;99.90
12520;DHT22;6325;49.540;8.364;2023-08-07T13:21:30;19.70;99.90
12520;DHT22;6325;49.540;8.364;2023-08-07T13:23:56;19.80;99.90
12520;DHT22;6325;49.540;8.364;2023-08-07T13:26:23;20.20;99.90
12520;DHT22;6325;49.540;8.364;2023-08-07T13:28:50;20.30;99.90
12520;DHT22;6325;49.540;8.364;2023-08-07T13:31:17;20.60;99.90
12520;DHT22;6325;49.540;8.364;2023-08-07T13:33:45;20.50;99.90
12520;DHT22;6325;49.540;8.364;2023-08-07T13:36:12;21.20;99.90
12520;DHT22;6325;49.540;8.364;2023-08-07T13:38:38;21.40;99.90
12520;DHT22;6325;49.540;8.364;2023-08-07T13:41:06;21.80;99.90
12520;DHT22;6325;49.540;8.364;2023-08-07T13:43:33;21.70;99.90
12520;DHT22;6325;49.540;8.364;2023-08-07T13:45:59;21.70;99.90
12520;DHT22;6325;49.540;8.364;2023-08-07T13:48:26;22.10;99.90
12520;DHT22;6325;49.540;8.364;2023-08-07T13:50:54;22.10;99.90
12520;DHT22;6325;49.540;8.364;2023-08-07T13:53:21;22.40;99.90
12520;DHT22;6325;49.540;8.364;2023-08-07T13:55:49;22.40;99.90
12520;DHT22;6325;49.540;8.364;2023-08-07T13:58:16;22.40;99.90
12520;DHT22;6325;49.540;8.364;2023-08-07T14:00:43;22.70;99.90
12520;DHT22;6325;49.540;8.364;2023-08-07T14:03:10;23.10;99.90
12520;DHT22;6325;49.540;8.364;2023-08-07T14:05:38;23.00;99.90
12520;DHT22;6325;49.540;8.364;2023-08-07T14:08:06;22.60;99.60
12520;DHT22;6325;49.540;8.364;2023-08-07T14:10:35;22.50;99.50
12520;DHT22;6325;49.540;8.364;2023-08-07T14:13:02;22.20;99.60
12520;DHT22;6325;49.540;8.364;2023-08-07T14:15:28;22.00;99.90
12520;DHT22;6325;49.540;8.364;2023-08-07T14:17:55;21.80;99.90
12520;DHT22;6325;49.540;8.364;2023-08-07T14:20:22;22.10;99.90
12520;DHT22;6325;49.540;8.364;2023-08-07T14:22:49;21.60;99.90
12520;DHT22;6325;49.540;8.364;2023-08-07T14:25:18;21.40;99.90
12520;DHT22;6325;49.540;8.364;2023-08-07T14:27:46;21.50;99.90
12520;DHT22;6325;49.540;8.364;2023-08-07T14:30:13;21.30;99.90
12520;DHT22;6325;49.540;8.364;2023-08-07T14:32:41;21.40;99.90
12520;DHT22;6325;49.540;8.364;2023-08-07T14:35:09;21.90;99.90
12520;DHT22;6325;49.540;8.364;2023-08-07T14:37:36;21.90;99.90
12520;DHT22;6325;49.540;8.364;2023-08-07T14:40:03;21.80;99.80
12520;DHT22;6325;49.540;8.364;2023-08-07T14:42:31;21.30;99.40
12520;DHT22;6325;49.540;8.364;2023-08-07T14:44:58;21.60;99.90
12520;DHT22;6325;49.540;8.364;2023-08-07T14:47:25;21.50;99.90
12520;DHT22;6325;49.540;8.364;2023-08-07T14:49:52;21.40;99.90
12520;DHT22;6325;49.540;8.364;2023-08-07T14:52:19;21.80;99.90
12520;DHT22;6325;49.540;8.364;2023-08-07T14:54:46;22.10;99.90
12520;DHT22;6325;49.540;8.364;2023-08-07T14:57:12;21.90;99.90
12520;DHT22;6325;49.540;8.364;2023-08-07T14:59:41;22.20;99.90
12520;DHT22;6325;49.540;8.364;2023-08-07T15:02:07;22.40;99.90
12520;DHT22;6325;49.540;8.364;2023-08-07T15:04:34;22.70;99.20
12520;DHT22;6325;49.540;8.364;2023-08-07T15:07:01;22.40;99.10
12520;DHT22;6325;49.540;8.364;2023-08-07T15:09:29;22.80;97.90
12520;DHT22;6325;49.540;8.364;2023-08-07T15:11:55;22.90;99.10
12520;DHT22;6325;49.540;8.364;2023-08-07T15:14:22;22.20;98.70
12520;DHT22;6325;49.540;8.364;2023-08-07T15:16:50;23.00;99.00
12520;DHT22;6325;49.540;8.364;2023-08-07T15:19:17;22.90;98.60
12520;DHT22;6325;49.540;8.364;2023-08-07T15:21:44;22.80;98.80
12520;DHT22;6325;49.540;8.364;2023-08-07T15:24:11;22.60;98.70
12520;DHT22;6325;49.540;8.364;2023-08-07T15:26:37;22.20;98.60
12520;DHT22;6325;49.540;8.364;2023-08-07T15:29:04;22.20;98.90
12520;DHT22;6325;49.540;8.364;2023-08-07T15:31:32;22.90;99.30
12520;DHT22;6325;49.540;8.364;2023-08-07T15:34:00;22.40;98.00
12520;DHT22;6325;49.540;8.364;2023-08-07T15:36:26;23.20;98.10
12520;DHT22;6325;49.540;8.364;2023-08-07T15:38:53;23.10;97.00
12520;DHT22;6325;49.540;8.364;2023-08-07T15:41:20;22.90;95.80
12520;DHT22;6325;49.540;8.364;2023-08-07T15:43:47;23.30;96.70
12520;DHT22;6325;49.540;8.364;2023-08-07T15:46:14;23.10;97.30
12520;DHT22;6325;49.540;8.364;2023-08-07T15:48:41;23.20;96.10